Time;durP1;ratioP1;P1;durP2;ratioP2;P2;SDS_P1;SDS_P2;PMS_P1;PMS_P2;Temp;Humidity;BMP_temperature;BMP_pressure;BME280_temperature;BME280_humidity;BME280_pressure;Samples;Min_cycle;Max_cycle;Signal;HPM_P1;HPM_P2
2023/02/13 00:01:55;;;;;;;33.43;19.97;;;;;;;2.92;100.00;98569.97;5082796;28;20181;-64
2023/02/13 00:04:21;;;;;;;34.87;19.23;;;;;;;2.89;100.00;98563.31;5085393;28;20180;-64
2023/02/13 00:06:49;;;;;;;33.33;20.50;;;;;;;2.86;100.00;98563.56;5091947;28;20268;-64
2023/02/13 00:09:15;;;;;;;33.67;20.63;;;;;;;2.87;100.00;98562.63;5073548;28;20631;-64
2023/02/13 00:11:40;;;;;;;35.47;20.10;;;;;;;2.87;100.00;98562.63;5082479;28;20216;-64
2023/02/13 00:14:07;;;;;;;33.70;20.33;;;;;;;2.85;100.00;98561.09;5093857;28;20636;-65
2023/02/13 00:16:33;;;;;;;39.23;21.07;;;;;;;2.90;100.00;98567.50;5093587;28;20215;-64
2023/02/13 00:18:58;;;;;;;34.00;21.13;;;;;;;2.93;100.00;98559.50;5075237;28;20185;-65
2023/02/13 00:21:24;;;;;;;33.27;19.57;;;;;;;2.85;100.00;98567.09;5086895;28;20221;-66
2023/02/13 00:23:49;;;;;;;35.90;20.63;;;;;;;2.88;100.00;98571.22;5073460;28;20279;-65
2023/02/13 00:26:16;;;;;;;35.40;20.60;;;;;;;2.87;100.00;98564.38;5072689;28;20245;-66
2023/02/13 00:28:42;;;;;;;37.00;20.83;;;;;;;2.79;100.00;98567.63;5074026;28;20669;-66
2023/02/13 00:31:10;;;;;;;36.43;20.47;;;;;;;2.78;100.00;98565.19;5070731;28;20239;-64
2023/02/13 00:33:37;;;;;;;33.40;20.37;;;;;;;2.80;100.00;98568.47;5073592;28;20185;-64
2023/02/13 00:36:24;;;;;;;32.73;20.07;;;;;;;2.70;100.00;98559.84;5073356;28;20236;-66
2023/02/13 00:38:50;;;;;;;33.97;20.37;;;;;;;2.74;100.00;98566.41;5073620;28;20185;-66
2023/02/13 00:41:16;;;;;;;34.63;20.37;;;;;;;2.82;100.00;98563.97;5089148;28;20168;-65
2023/02/13 00:43:43;;;;;;;34.57;20.23;;;;;;;2.78;100.00;98557.44;5073882;28;20277;-65
2023/02/13 00:46:09;;;;;;;34.43;20.67;;;;;;;2.77;100.00;98564.38;5082968;28;20283;-66
2023/02/13 00:48:35;;;;;;;33.03;20.23;;;;;;;2.81;100.00;98564.91;5092733;28;20200;-66
2023/02/13 00:51:01;;;;;;;36.00;21.30;;;;;;;2.87;100.00;98561.81;5087907;28;20176;-64
2023/02/13 00:53:27;;;;;;;36.80;21.33;;;;;;;2.90;100.00;98558.94;5093040;28;20248;-66
2023/02/13 00:55:53;;;;;;;37.43;20.40;;;;;;;2.79;100.00;98559.03;5090992;28;20219;-67
2023/02/13 00:58:19;;;;;;;37.87;21.33;;;;;;;2.87;100.00;98565.22;5092840;28;20181;-65
2023/02/13 01:00:48;;;;;;;35.07;21.00;;;;;;;2.67;100.00;98560.97;5081299;28;20199;-66
2023/02/13 01:03:14;;;;;;;31.93;20.67;;;;;;;2.65;100.00;98555.09;5073202;28;20196;-66
2023/02/13 01:05:40;;;;;;;35.90;21.10;;;;;;;2.71;100.00;98561.50;5072934;28;20232;-65
2023/02/13 01:08:06;;;;;;;35.70;20.13;;;;;;;2.60;100.00;98551.25;5078411;28;20201;-66
2023/02/13 01:10:31;;;;;;;35.93;21.23;;;;;;;2.64;100.00;98552.63;5082902;28;20181;-66
2023/02/13 01:12:57;;;;;;;32.17;20.57;;;;;;;2.74;100.00;98551.69;5085864;28;20180;-65
2023/02/13 01:15:23;;;;;;;35.43;19.63;;;;;;;2.88;100.00;98555.69;5072913;28;20204;-65
2023/02/13 01:17:48;;;;;;;35.93;20.90;;;;;;;2.80;100.00;98555.50;5067776;28;20189;-65
2023/02/13 01:20:14;;;;;;;36.33;20.93;;;;;;;2.77;100.00;98548.84;5072935;28;20224;-65
2023/02/13 01:22:39;;;;;;;34.80;20.50;;;;;;;2.46;100.00;98555.03;5088295;28;20189;-66
2023/02/13 01:25:06;;;;;;;33.50;19.93;;;;;;;2.54;100.00;98552.59;5073041;28;20213;-66
2023/02/13 01:27:32;;;;;;;34.50;20.53;;;;;;;2.54;100.00;98556.97;5076193;28;20699;-65
2023/02/13 01:29:58;;;;;;;33.77;21.63;;;;;;;2.59;100.00;98550.44;5090559;28;20315;-65
2023/02/13 01:32:24;;;;;;;37.07;20.87;;;;;;;2.65;100.00;98552.50;5103058;28;20268;-64
2023/02/13 01:34:49;;;;;;;34.20;19.80;;;;;;;2.71;100.00;98548.56;5094967;28;20577;-64
2023/02/13 01:37:15;;;;;;;34.70;20.77;;;;;;;2.70;100.00;98546.91;5113069;28;20237;-64
2023/02/13 01:39:40;;;;;;;37.27;21.43;;;;;;;2.73;100.00;98544.88;5112946;28;20176;-64
2023/02/13 01:42:21;;;;;;;37.87;21.30;;;;;;;2.64;100.00;98540.50;5113073;28;20195;-64
2023/02/13 01:44:56;;;;;;;33.73;20.30;;;;;;;2.65;100.00;98546.50;5112846;28;20608;-64
2023/02/13 01:47:57;;;;;;;40.10;22.17;;;;;;;2.67;100.00;98548.03;5112810;28;20258;-64
2023/02/13 01:50:38;;;;;;;37.77;21.43;;;;;;;2.56;100.00;98542.97;5111430;28;20191;-66
2023/02/13 01:53:10;;;;;;;38.07;21.80;;;;;;;2.42;100.00;98538.13;5114010;28;20195;-64
2023/02/13 01:55:45;;;;;;;42.03;22.50;;;;;;;2.35;100.00;98543.00;5117103;28;20212;-66
2023/02/13 01:58:17;;;;;;;44.93;23.20;;;;;;;2.50;100.00;98538.31;5116820;28;20183;-67
2023/02/13 02:00:48;;;;;;;36.47;22.10;;;;;;;2.54;100.00;98541.44;5116879;28;20212;-65
2023/02/13 02:03:24;;;;;;;36.57;22.03;;;;;;;2.46;100.00;98542.91;5116869;28;20207;-66
2023/02/13 02:05:50;;;;;;;37.13;21.87;;;;;;;2.43;100.00;98540.59;5115875;28;20694;-64
2023/02/13 02:08:17;;;;;;;36.63;21.87;;;;;;;2.27;100.00;98544.63;5116370;28;20243;-64
2023/02/13 02:10:43;;;;;;;39.27;22.70;;;;;;;2.26;100.00;98540.41;5116052;28;20187;-65
2023/02/13 02:13:17;;;;;;;39.97;22.37;;;;;;;2.19;100.00;98534.09;5116730;28;20259;-65
2023/02/13 02:15:43;;;;;;;36.87;21.37;;;;;;;2.17;100.00;98543.78;5116075;28;20291;-65
2023/02/13 02:18:14;;;;;;;39.43;23.27;;;;;;;2.26;100.00;98538.63;5116201;28;20255;-65
2023/02/13 02:20:58;;;;;;;40.20;21.83;;;;;;;2.43;100.00;98540.59;5116275;28;20618;-64
2023/02/13 02:23:42;;;;;;;39.20;23.30;;;;;;;2.42;100.00;98536.38;5115653;28;20651;-64
2023/02/13 02:26:41;;;;;;;36.77;21.83;;;;;;;2.20;100.00;98535.75;5093459;28;20215;-64
2023/02/13 02:29:19;;;;;;;34.53;21.90;;;;;;;2.12;100.00;98536.38;5115621;28;20215;-64
2023/02/13 02:32:36;;;;;;;39.40;22.27;;;;;;;2.05;100.00;98532.72;5087000;28;20251;-64
2023/02/13 02:35:01;;;;;;;39.27;22.50;;;;;;;2.08;100.00;98533.25;5035985;28;20270;-64
2023/02/13 02:37:35;;;;;;;37.30;21.97;;;;;;;2.21;100.00;98539.97;5095282;28;20189;-65
2023/02/13 02:40:01;;;;;;;40.93;23.20;;;;;;;2.17;100.00;98542.03;5095242;28;20664;-65
2023/02/13 02:42:26;;;;;;;39.87;21.27;;;;;;;2.18;100.00;98535.88;5095032;28;20185;-64
2023/02/13 02:44:57;;;;;;;37.33;23.30;;;;;;;1.99;100.00;98536.63;5095135;28;20204;-65
2023/02/13 02:50:42;;;;;;;38.73;22.40;;;;;;;1.97;100.00;98532.53;5088132;28;20211;-64
2023/02/13 02:53:36;;;;;;;38.67;22.17;;;;;;;1.97;100.00;98543.69;5095293;28;20637;-64
2023/02/13 02:56:07;;;;;;;37.97;22.33;;;;;;;1.93;100.00;98534.56;5095668;28;20211;-64
2023/02/13 03:07:16;;;;;;;39.73;22.07;;;;;;;2.17;100.00;98536.03;5094979;28;20180;-64
2023/02/13 03:13:22;;;;;;;39.67;22.47;;;;;;;2.16;100.00;98539.56;4993477;28;20203;-66
2023/02/13 03:25:07;;;;;;;40.50;23.30;;;;;;;2.23;100.00;98549.22;5093131;28;20558;-65
2023/02/13 03:31:14;;;;;;;40.13;21.70;;;;;;;2.14;100.00;98550.03;5080568;28;20319;-64
2023/02/13 03:33:54;;;;;;;40.77;22.63;;;;;;;2.19;100.00;98549.63;5049681;28;20185;-64
2023/02/13 03:39:21;;;;;;;41.80;22.13;;;;;;;2.13;100.00;98558.72;5093947;28;20184;-63
2023/02/13 03:42:11;;;;;;;38.17;22.90;;;;;;;1.99;100.00;98554.72;5091970;28;20187;-64
2023/02/13 03:44:43;;;;;;;46.27;23.27;;;;;;;2.02;100.00;98561.41;5080978;28;20307;-64
2023/02/13 03:47:10;;;;;;;40.13;23.23;;;;;;;2.20;100.00;98559.84;5056026;28;20657;-64
2023/02/13 03:50:06;;;;;;;45.13;22.93;;;;;;;2.30;100.00;98565.88;5079024;28;20200;-63
2023/02/13 03:52:44;;;;;;;39.70;23.10;;;;;;;2.33;100.00;98562.22;5093754;28;20176;-64
2023/02/13 04:00:55;;;;;;;43.37;22.67;;;;;;;2.01;100.00;98560.56;5074790;28;20671;-65
2023/02/13 04:03:27;;;;;;;38.20;21.77;;;;;;;1.98;100.00;98560.03;5076786;28;20173;-64
2023/02/13 04:06:00;;;;;;;41.47;22.70;;;;;;;1.91;100.00;98571.81;5093539;28;20200;-64
2023/02/13 04:08:25;;;;;;;40.77;24.10;;;;;;;1.86;100.00;98569.63;5084963;28;20644;-65
2023/02/13 04:11:06;;;;;;;41.90;24.87;;;;;;;2.00;100.00;98573.66;5093337;28;20318;-64
2023/02/13 04:13:41;;;;;;;41.93;24.10;;;;;;;2.02;100.00;98579.50;5066120;28;20180;-64
2023/02/13 04:16:20;;;;;;;43.93;23.77;;;;;;;1.98;100.00;98576.34;5073129;28;20688;-65
2023/02/13 04:18:47;;;;;;;40.40;23.00;;;;;;;2.00;100.00;98579.66;5081306;28;20266;-64
2023/02/13 04:21:13;;;;;;;44.47;24.27;;;;;;;1.99;100.00;98578.00;5090743;28;20188;-64
2023/02/13 04:23:38;;;;;;;40.10;24.13;;;;;;;1.94;100.00;98577.56;5093261;28;20189;-64
2023/02/13 04:26:13;;;;;;;44.57;24.33;;;;;;;1.90;100.00;98583.91;5079263;28;20279;-64
2023/02/13 04:28:38;;;;;;;43.20;24.37;;;;;;;1.88;100.00;98572.91;5074447;28;20204;-64
2023/02/13 04:31:04;;;;;;;46.17;25.40;;;;;;;1.85;100.00;98585.25;5096488;28;20224;-65
2023/02/13 04:33:29;;;;;;;47.00;24.60;;;;;;;1.80;100.00;98579.66;5113354;28;20176;-63
2023/02/13 04:35:55;;;;;;;46.10;25.50;;;;;;;1.90;100.00;98585.69;5113863;28;20235;-64
2023/02/13 04:38:21;;;;;;;44.20;25.83;;;;;;;1.82;100.00;98583.75;5113654;28;20631;-64
2023/02/13 04:40:46;;;;;;;42.00;23.73;;;;;;;1.89;100.00;98578.91;5113642;28;20176;-64
2023/02/13 04:43:11;;;;;;;42.57;25.03;;;;;;;1.84;100.00;98586.22;5113218;28;20216;-64
2023/02/13 04:45:37;;;;;;;46.30;25.43;;;;;;;1.68;100.00;98584.88;5113215;28;20249;-63
2023/02/13 04:48:02;;;;;;;47.43;25.83;;;;;;;1.59;100.00;98575.31;5112617;28;20184;-64
2023/02/13 04:50:28;;;;;;;41.37;23.47;;;;;;;1.58;100.00;98568.50;5094860;28;20180;-63
2023/02/13 04:52:55;;;;;;;45.50;25.17;;;;;;;1.63;100.00;98587.03;5113086;28;20214;-64
2023/02/13 04:55:22;;;;;;;47.13;25.00;;;;;;;1.64;100.00;98577.50;5112980;28;20214;-64
2023/02/13 04:57:47;;;;;;;47.37;28.13;;;;;;;1.67;100.00;98590.19;5095165;28;20715;-64
2023/02/13 05:00:13;;;;;;;43.73;25.27;;;;;;;1.70;100.00;98594.28;5113202;28;20184;-63
2023/02/13 05:02:39;;;;;;;44.90;26.87;;;;;;;1.67;100.00;98590.19;5110778;28;20545;-63
2023/02/13 05:05:04;;;;;;;45.77;24.67;;;;;;;1.79;100.00;98589.16;5094605;28;20211;-63
2023/02/13 05:07:30;;;;;;;46.47;25.83;;;;;;;1.78;100.00;98586.72;5113355;28;20172;-63
2023/02/13 05:09:55;;;;;;;51.50;26.33;;;;;;;1.68;100.00;98591.81;5113114;28;20203;-63
2023/02/13 05:12:21;;;;;;;43.13;25.30;;;;;;;1.63;100.00;98588.78;5112796;28;20190;-63
2023/02/13 05:14:46;;;;;;;49.93;25.90;;;;;;;1.57;100.00;98590.13;5112988;28;20222;-64
2023/02/13 05:17:12;;;;;;;50.00;27.40;;;;;;;1.60;100.00;98596.81;5112674;28;20287;-64
2023/02/13 05:19:37;;;;;;;50.57;26.90;;;;;;;1.53;100.00;98593.06;5113139;28;20172;-64
2023/02/13 05:24:47;;;;;;;45.57;25.63;;;;;;;1.56;100.00;98591.06;5106582;28;20269;-64
2023/02/13 05:27:12;;;;;;;45.67;25.50;;;;;;;1.61;100.00;98593.28;5110154;28;20199;-64
2023/02/13 05:29:38;;;;;;;44.47;25.67;;;;;;;1.60;100.00;98596.81;5112785;28;20299;-63
2023/02/13 05:32:03;;;;;;;48.10;27.60;;;;;;;1.54;100.00;98587.78;5104199;28;20207;-63
2023/02/13 05:34:30;;;;;;;48.23;25.57;;;;;;;1.43;100.00;98595.59;5117183;28;20549;-64
2023/02/13 05:36:55;;;;;;;48.10;27.20;;;;;;;1.48;100.00;98601.22;5116955;28;20184;-64
2023/02/13 05:39:21;;;;;;;49.20;27.73;;;;;;;1.41;100.00;98594.88;5117044;28;20526;-63
2023/02/13 05:41:47;;;;;;;50.00;28.33;;;;;;;1.48;100.00;98596.03;5117142;28;20212;-63
2023/02/13 05:44:14;;;;;;;50.37;26.43;;;;;;;1.49;100.00;98592.53;5117250;28;20183;-63
2023/02/13 05:46:41;;;;;;;48.00;26.93;;;;;;;1.50;100.00;98599.31;5116619;28;20256;-63
2023/02/13 05:49:09;;;;;;;48.50;26.33;;;;;;;1.62;100.00;98593.13;5097332;28;20622;-64
2023/02/13 05:51:35;;;;;;;53.17;26.87;;;;;;;1.43;100.00;98590.44;5109982;28;20188;-64
2023/02/13 05:54:01;;;;;;;51.50;29.03;;;;;;;1.46;100.00;98591.94;5116987;28;20676;-62
2023/02/13 05:56:26;;;;;;;52.20;29.30;;;;;;;1.55;100.00;98586.03;5116526;28;20211;-63
2023/02/13 05:58:53;;;;;;;58.37;29.30;;;;;;;1.54;100.00;98587.78;5116089;28;20183;-63
2023/02/13 06:01:19;;;;;;;55.10;28.90;;;;;;;1.56;100.00;98592.84;5116570;28;20195;-63
2023/02/13 06:03:45;;;;;;;55.00;28.70;;;;;;;1.54;100.00;98586.97;5116943;28;20187;-63
2023/02/13 06:06:11;;;;;;;54.83;28.17;;;;;;;1.60;100.00;98589.88;5116216;28;20215;-64
2023/02/13 06:08:36;;;;;;;52.87;27.97;;;;;;;1.49;100.00;98587.34;5115990;28;20219;-63
2023/02/13 06:11:03;;;;;;;52.93;27.53;;;;;;;1.44;100.00;98579.16;5116036;28;20546;-63
2023/02/13 06:13:28;;;;;;;54.57;26.37;;;;;;;1.43;100.00;98589.59;5116295;28;20309;-62
2023/02/13 06:15:54;;;;;;;51.17;28.47;;;;;;;1.30;100.00;98584.59;5111208;28;20804;-63
2023/02/13 06:18:19;;;;;;;50.37;25.97;;;;;;;1.23;100.00;98580.88;5115954;28;20271;-62
2023/02/13 06:20:45;;;;;;;41.90;23.53;;;;;;;1.26;100.00;98585.81;5115901;28;20234;-63
2023/02/13 06:23:10;;;;;;;41.10;22.40;;;;;;;1.36;100.00;98591.88;5096822;28;20260;-62
2023/02/13 06:25:36;;;;;;;47.47;24.83;;;;;;;1.29;100.00;98593.28;5105671;28;20246;-63
2023/02/13 06:28:03;;;;;;;43.63;23.83;;;;;;;1.20;100.00;98594.88;5116213;28;20192;-62
2023/02/13 06:30:29;;;;;;;43.20;25.00;;;;;;;1.24;100.00;98596.25;5111963;27;20696;-63
2023/02/13 06:32:55;;;;;;;43.57;25.00;;;;;;;1.10;100.00;98595.72;5092974;28;20188;-64
2023/02/13 06:35:20;;;;;;;44.50;24.23;;;;;;;1.04;100.00;98598.78;5115769;28;20225;-64
2023/02/13 06:37:47;;;;;;;44.87;24.37;;;;;;;0.99;100.00;98598.34;5115847;28;20190;-64
2023/02/13 06:40:14;;;;;;;36.07;22.00;;;;;;;1.09;100.00;98602.66;5115969;28;20184;-64
2023/02/13 06:42:41;;;;;;;38.97;22.67;;;;;;;1.12;100.00;98599.00;5115848;28;20581;-63
2023/02/13 06:45:07;;;;;;;37.20;21.40;;;;;;;1.16;100.00;98596.06;5115149;28;20242;-64
2023/02/13 06:47:32;;;;;;;39.87;22.37;;;;;;;1.18;100.00;98601.91;5111947;28;20180;-63
2023/02/13 06:49:58;;;;;;;38.70;21.67;;;;;;;1.26;100.00;98603.88;5115700;28;20264;-64
2023/02/13 06:52:23;;;;;;;39.97;22.43;;;;;;;1.28;100.00;98606.34;5097691;28;20556;-64
2023/02/13 06:54:49;;;;;;;41.60;24.03;;;;;;;1.28;100.00;98602.00;5115642;28;20241;-64
2023/02/13 06:57:14;;;;;;;40.60;24.27;;;;;;;1.34;100.00;98604.06;5115697;28;20183;-64
2023/02/13 06:59:40;;;;;;;44.33;25.53;;;;;;;1.37;100.00;98603.03;5097634;28;20176;-64
2023/02/13 07:02:05;;;;;;;41.50;23.70;;;;;;;1.49;100.00;98607.19;5115376;28;20270;-64
2023/02/13 07:04:31;;;;;;;39.37;23.97;;;;;;;1.48;100.00;98610.72;5115432;28;20321;-64
2023/02/13 07:06:56;;;;;;;38.30;23.67;;;;;;;1.62;100.00;98608.63;5115716;28;20313;-63
2023/02/13 07:09:23;;;;;;;43.47;24.73;;;;;;;1.62;100.00;98607.81;5115522;28;20211;-64
2023/02/13 07:11:48;;;;;;;37.97;23.57;;;;;;;1.62;100.00;98616.38;5096620;28;20573;-63
2023/02/13 07:14:14;;;;;;;39.97;23.77;;;;;;;1.86;100.00;98613.56;5115335;28;20184;-65
2023/02/13 07:16:39;;;;;;;41.97;23.40;;;;;;;1.83;100.00;98613.00;5115060;28;20207;-65
2023/02/13 07:19:05;;;;;;;40.50;24.07;;;;;;;1.97;100.00;98617.84;5115151;28;20632;-65
2023/02/13 07:21:31;;;;;;;37.83;23.30;;;;;;;2.09;100.00;98614.25;5115437;28;20341;-63
2023/02/13 07:23:56;;;;;;;40.87;25.70;;;;;;;2.10;100.00;98618.47;5117453;28;20192;-64
2023/02/13 07:26:22;;;;;;;38.67;24.17;;;;;;;2.21;100.00;98610.63;5113218;28;20211;-64
2023/02/13 07:28:48;;;;;;;39.60;23.17;;;;;;;2.19;100.00;98620.28;5088287;28;20212;-64
2023/02/13 07:31:13;;;;;;;39.03;24.10;;;;;;;2.34;100.00;98624.16;5093009;28;20612;-63
2023/02/13 07:34:06;;;;;;;38.57;23.53;;;;;;;2.36;100.00;98618.88;5093582;28;20192;-64
2023/02/13 07:36:33;;;;;;;35.20;22.47;;;;;;;2.31;100.00;98618.44;5036173;28;20222;-65
2023/02/13 07:38:58;;;;;;;36.70;23.40;;;;;;;2.51;100.00;98622.72;5054509;28;20540;-61
2023/02/13 07:41:27;;;;;;;34.60;22.87;;;;;;;2.56;100.00;98630.13;5081261;28;20231;-64
2023/02/13 07:43:53;;;;;;;39.00;24.20;;;;;;;2.71;100.00;98626.22;5081963;28;20808;-63
2023/02/13 07:46:19;;;;;;;34.83;22.60;;;;;;;2.62;100.00;98625.22;5076530;28;20211;-63
2023/02/13 07:48:45;;;;;;;39.67;24.33;;;;;;;2.84;100.00;98637.16;5075349;28;20284;-63
2023/02/13 07:51:10;;;;;;;38.40;23.90;;;;;;;2.91;100.00;98628.72;5079769;28;20331;-62
2023/02/13 07:53:40;;;;;;;35.13;22.20;;;;;;;2.89;100.00;98619.47;5074396;28;20188;-62
2023/02/13 07:56:06;;;;;;;33.60;22.00;;;;;;;2.99;100.00;98624.66;5073829;28;20216;-62
2023/02/13 07:58:32;;;;;;;34.93;21.43;;;;;;;3.06;100.00;98624.00;5088780;28;20189;-63
2023/02/13 08:00:57;;;;;;;36.50;21.67;;;;;;;3.19;100.00;98623.72;5077870;28;20193;-60
2023/02/13 08:03:22;;;;;;;37.03;22.20;;;;;;;5.08;100.00;98627.88;5079492;28;20184;-63
2023/02/13 08:05:48;;;;;;;29.23;20.27;;;;;;;4.24;100.00;98628.00;5081577;28;20224;-60
2023/02/13 08:08:14;;;;;;;28.37;20.57;;;;;;;3.57;100.00;98621.13;5076779;28;20212;-62
2023/02/13 08:13:24;;;;;;;26.23;18.90;;;;;;;3.67;100.00;98624.56;5073526;28;20191;-63
2023/02/13 08:15:49;;;;;;;26.90;18.80;;;;;;;3.59;100.00;98629.59;5073797;28;20736;-62
2023/02/13 08:18:14;;;;;;;25.77;19.37;;;;;;;3.59;100.00;98621.84;5073358;28;20262;-62
2023/02/13 08:20:40;;;;;;;26.00;19.07;;;;;;;3.67;100.00;98621.16;5073651;28;20228;-62
2023/02/13 08:23:08;;;;;;;23.13;17.30;;;;;;;3.66;100.00;98630.72;5073236;28;20185;-63
2023/02/13 08:25:34;;;;;;;21.63;15.93;;;;;;;3.59;100.00;98634.78;5073535;28;20227;-63
2023/02/13 08:28:00;;;;;;;22.70;16.37;;;;;;;3.61;100.00;98629.47;5073547;28;20208;-63
2023/02/13 08:30:26;;;;;;;22.07;16.10;;;;;;;3.50;100.00;98627.84;5083358;28;20220;-62
2023/02/13 08:32:51;;;;;;;24.83;16.70;;;;;;;3.51;100.00;98628.66;5105840;28;20185;-62
2023/02/13 08:35:17;;;;;;;24.97;16.60;;;;;;;3.52;100.00;98628.50;5093681;28;20257;-63
2023/02/13 08:37:42;;;;;;;22.20;17.13;;;;;;;3.45;100.00;98624.03;5103685;28;20258;-64
2023/02/13 08:40:09;;;;;;;21.67;15.90;;;;;;;3.64;100.00;98627.41;5116947;28;20184;-64
2023/02/13 08:42:35;;;;;;;20.17;15.83;;;;;;;3.42;100.00;98630.28;5113901;28;20636;-63
2023/02/13 08:45:01;;;;;;;23.20;17.17;;;;;;;3.72;100.00;98616.38;5113508;28;20219;-62
2023/02/13 08:47:27;;;;;;;22.37;17.07;;;;;;;3.72;100.00;98616.38;5112050;28;20184;-63
2023/02/13 08:49:52;;;;;;;22.33;16.73;;;;;;;3.83;100.00;98624.00;5113095;28;20204;-61
2023/02/13 08:52:18;;;;;;;22.27;16.17;;;;;;;3.58;100.00;98617.59;5113170;28;20271;-62
2023/02/13 08:54:43;;;;;;;21.67;17.00;;;;;;;3.68;100.00;98615.00;5112706;28;20257;-62
2023/02/13 08:57:09;;;;;;;22.67;14.80;;;;;;;3.48;100.00;98611.59;5094413;28;20199;-63
2023/02/13 08:59:34;;;;;;;20.87;16.23;;;;;;;3.53;100.00;98614.59;5112904;28;20183;-63
2023/02/13 09:02:00;;;;;;;20.13;15.83;;;;;;;3.60;100.00;98614.88;5093773;28;20628;-63
2023/02/13 09:04:25;;;;;;;20.77;15.67;;;;;;;3.56;100.00;98614.34;5112791;28;20258;-63
2023/02/13 09:06:51;;;;;;;21.67;16.03;;;;;;;3.55;100.00;98617.06;5112664;28;20222;-63
2023/02/13 09:09:16;;;;;;;19.90;15.77;;;;;;;3.20;100.00;98625.38;5113151;28;20318;-63
2023/02/13 09:11:42;;;;;;;20.87;16.40;;;;;;;3.25;100.00;98620.59;5112636;28;20235;-64
2023/02/13 09:14:07;;;;;;;19.60;15.60;;;;;;;3.31;100.00;98620.88;5111698;28;20198;-64
2023/02/13 09:16:32;;;;;;;19.40;15.17;;;;;;;3.58;100.00;98617.59;5112309;28;20215;-64
2023/02/13 09:18:58;;;;;;;20.87;16.77;;;;;;;3.66;100.00;98620.34;5113142;28;20184;-64
2023/02/13 09:21:23;;;;;;;19.60;15.80;;;;;;;3.56;100.00;98619.53;5112763;28;20196;-64
2023/02/13 09:23:50;;;;;;;19.37;15.17;;;;;;;3.45;100.00;98618.84;5111690;28;20203;-64
2023/02/13 09:26:17;;;;;;;18.43;14.33;;;;;;;3.46;100.00;98618.69;5112072;28;20207;-64
2023/02/13 09:28:43;;;;;;;17.70;14.30;;;;;;;3.72;100.00;98617.19;5112726;28;20336;-63
2023/02/13 09:31:11;;;;;;;17.40;13.97;;;;;;;3.66;100.00;98619.50;5108850;28;20231;-62
2023/02/13 09:33:37;;;;;;;17.07;13.40;;;;;;;3.78;100.00;98626.19;5112425;28;20269;-63
2023/02/13 09:36:07;;;;;;;19.90;14.83;;;;;;;3.96;100.00;98621.91;5112595;28;20207;-63
2023/02/13 09:38:33;;;;;;;17.60;13.87;;;;;;;4.04;100.00;98621.22;5112473;28;20261;-63
2023/02/13 09:41:28;;;;;;;14.90;12.93;;;;;;;4.01;100.00;98627.50;5113138;28;20213;-63
2023/02/13 09:44:11;;;;;;;16.23;13.57;;;;;;;4.13;100.00;98633.34;5109246;28;20200;-63
2023/02/13 09:46:39;;;;;;;16.80;13.57;;;;;;;4.13;100.00;98630.75;5108395;28;20203;-63
2023/02/13 09:49:14;;;;;;;18.80;14.03;;;;;;;4.08;100.00;98636.38;5112486;28;20204;-63
2023/02/13 09:51:43;;;;;;;16.47;12.57;;;;;;;4.28;100.00;98637.16;5112675;28;20183;-63
2023/02/13 09:54:14;;;;;;;15.60;12.80;;;;;;;4.33;100.00;98629.75;5094095;28;20198;-63
2023/02/13 09:56:59;;;;;;;14.87;11.93;;;;;;;4.17;100.00;98630.34;5111897;28;20207;-63
2023/02/13 09:59:43;;;;;;;15.00;11.77;;;;;;;4.33;100.00;98621.97;5111920;28;20263;-63
2023/02/13 10:02:45;;;;;;;13.50;12.10;;;;;;;4.38;100.00;98626.72;5111445;28;20553;-63
2023/02/13 10:05:37;;;;;;;17.10;13.03;;;;;;;4.57;100.00;98637.84;5112493;28;20290;-63
2023/02/13 10:08:12;;;;;;;18.77;13.87;;;;;;;4.48;100.00;98628.34;5092737;28;20191;-64
2023/02/13 10:10:58;;;;;;;14.97;12.47;;;;;;;4.65;100.00;98629.34;5112825;28;20545;-63
2023/02/13 10:13:49;;;;;;;15.17;13.13;;;;;;;4.61;100.00;98630.59;5112064;28;20191;-64
2023/02/13 10:16:17;;;;;;;15.97;13.87;;;;;;;4.62;100.00;98629.66;5115449;28;20311;-63
2023/02/13 10:18:45;;;;;;;15.00;13.33;;;;;;;4.72;100.00;98635.63;5115838;28;20244;-64
2023/02/13 10:21:12;;;;;;;16.23;14.53;;;;;;;4.90;100.00;98635.66;5115539;28;20184;-63
2023/02/13 10:23:45;;;;;;;18.30;16.50;;;;;;;4.79;100.00;98633.25;5114010;28;20203;-63
2023/02/13 10:26:21;;;;;;;16.67;15.07;;;;;;;4.96;100.00;98633.28;5097648;28;20203;-64
2023/02/13 10:31:49;;;;;;;15.07;12.97;;;;;;;5.06;100.00;98629.84;5109344;28;20726;-62
2023/02/13 10:34:16;;;;;;;13.73;12.20;;;;;;;4.83;100.00;98634.59;5115690;28;20536;-63
2023/02/13 10:36:46;;;;;;;14.33;12.33;;;;;;;4.90;100.00;98620.88;5115862;28;20214;-60
2023/02/13 10:39:49;;;;;;;16.07;12.17;;;;;;;4.81;100.00;98629.53;5116016;28;20180;-62
2023/02/13 10:42:48;;;;;;;14.20;12.70;;;;;;;5.01;100.00;98625.06;5115768;28;20179;-62
2023/02/13 10:45:50;;;;;;;15.33;13.00;;;;;;;5.12;100.00;98619.66;5099272;28;20228;-62
2023/02/13 10:48:36;;;;;;;14.57;12.63;;;;;;;5.24;100.00;98617.69;5075046;28;20201;-61
2023/02/13 10:51:29;;;;;;;13.33;12.00;;;;;;;5.23;100.00;98622.06;5120660;28;20180;-62
2023/02/13 10:54:37;;;;;;;16.33;12.33;;;;;;;5.40;99.60;98612.63;5095210;28;20176;-62
2023/02/13 10:57:38;;;;;;;13.03;11.67;;;;;;;5.38;98.18;98614.56;5115107;28;20240;-61
2023/02/13 11:00:14;;;;;;;15.53;12.47;;;;;;;5.42;97.26;98608.91;5079443;28;20244;-62
2023/02/13 11:02:40;;;;;;;20.90;19.10;;;;;;;5.33;95.92;98602.00;5115409;28;20180;-62
2023/02/13 11:05:16;;;;;;;23.50;21.63;;;;;;;5.48;96.02;98598.88;5114808;28;20208;-62
2023/02/13 11:07:45;;;;;;;13.53;12.13;;;;;;;5.63;95.06;98603.38;5100801;28;20184;-63
2023/02/13 11:10:22;;;;;;;13.40;11.57;;;;;;;5.73;93.91;98598.13;5095181;28;20204;-62
2023/02/13 11:12:49;;;;;;;34.63;19.03;;;;;;;5.71;93.71;98594.84;5096582;28;20557;-63
2023/02/13 11:15:27;;;;;;;12.50;11.27;;;;;;;5.69;94.35;98591.56;5096712;28;20212;-63
2023/02/13 11:17:59;;;;;;;12.03;10.80;;;;;;;5.73;95.33;98593.72;5114688;28;20194;-63
2023/02/13 11:20:28;;;;;;;13.03;11.63;;;;;;;5.78;94.54;98596.69;5114807;28;20184;-62
2023/02/13 11:22:56;;;;;;;12.43;11.13;;;;;;;5.74;95.40;98597.94;5115093;28;20188;-62
2023/02/13 11:25:25;;;;;;;15.67;14.17;;;;;;;5.86;93.96;98593.31;5105656;28;20208;-62
2023/02/13 11:28:09;;;;;;;19.47;17.73;;;;;;;5.90;92.53;98593.88;5114780;28;20559;-63
2023/02/13 11:30:37;;;;;;;22.63;20.93;;;;;;;5.74;93.64;98600.53;5098048;28;20235;-62
2023/02/13 11:33:20;;;;;;;19.10;17.50;;;;;;;6.00;92.06;98592.81;5092659;28;20181;-63
2023/02/13 11:35:47;;;;;;;17.07;15.57;;;;;;;6.14;91.50;98594.00;5074157;28;20225;-62
2023/02/13 11:38:21;;;;;;;13.67;12.33;;;;;;;6.19;89.88;98589.16;5087030;28;20184;-61
2023/02/13 11:41:02;;;;;;;16.17;14.87;;;;;;;6.30;89.04;98599.31;5093600;28;20184;-62
2023/02/13 11:43:30;;;;;;;11.97;10.77;;;;;;;6.46;88.97;98590.78;5084761;28;20212;-61
2023/02/13 11:46:22;;;;;;;12.90;11.60;;;;;;;6.37;89.68;98594.31;5082497;28;20224;-61
2023/02/13 11:49:00;;;;;;;10.43;9.33;;;;;;;6.52;87.73;98596.16;5078726;28;20197;-61
2023/02/13 11:51:52;;;;;;;11.60;10.03;;;;;;;6.41;89.73;98590.44;5091937;28;20184;-61
2023/02/13 11:54:38;;;;;;;13.43;12.03;;;;;;;6.36;90.49;98595.28;5093747;28;20172;-62
2023/02/13 11:57:54;;;;;;;12.27;10.97;;;;;;;6.26;91.46;98592.78;5079721;28;20177;-62
2023/02/13 12:00:29;;;;;;;13.33;11.93;;;;;;;6.38;91.53;98585.53;4995565;28;20594;-62
2023/02/13 12:02:55;;;;;;;14.90;12.37;;;;;;;6.54;91.43;98585.59;5011469;28;20274;-63
2023/02/13 12:05:23;;;;;;;13.60;12.20;;;;;;;6.55;91.28;98584.63;4995514;28;20299;-63
2023/02/13 12:07:48;;;;;;;16.70;12.07;;;;;;;6.48;90.59;98584.44;5001220;28;20191;-63
2023/02/13 12:10:14;;;;;;;14.20;11.40;;;;;;;6.56;90.86;98581.06;5005103;28;20208;-62
2023/02/13 12:13:02;;;;;;;14.00;12.47;;;;;;;6.46;89.06;98581.19;4999629;28;20195;-62
2023/02/13 12:15:31;;;;;;;14.17;12.53;;;;;;;6.56;89.67;98581.06;5000746;28;20258;-62
2023/02/13 12:18:38;;;;;;;15.20;13.60;;;;;;;6.66;89.83;98573.94;4999268;28;20235;-61
2023/02/13 12:21:29;;;;;;;14.93;13.13;;;;;;;6.35;90.80;98578.84;4964882;28;20203;-62